This is the latest recevied weather packets stored in our database for station/object AC1IX. If no packets are shown the sender has not sent any weather packets the latest 1 day(s).
| Time | Temp. | Humidity | Pressure | Rain* | Wind** | Luminosity | Snow |
|---|---|---|---|---|---|---|---|
| 1777984869 | 16.67° C | 75% | 1009.4 hPa | 0 mm | 0.45 m/s, 286° | 183 W/m² | - |
| 1777984566 | 16.11° C | 81% | 1009.5 hPa | 0 mm | 0 m/s | 283 W/m² | - |
| 1777984262 | 15.56° C | 82% | 1009.3 hPa | 0 mm | 0 m/s | 124 W/m² | - |
| 1777983959 | 15.56° C | 87% | 1009.1 hPa | 0 mm | 0 m/s | 113 W/m² | - |
| 1777983656 | 15° C | 91% | 1009.4 hPa | 0 mm | 0 m/s | 128 W/m² | - |
| 1777983352 | 15° C | 93% | 1009.3 hPa | 0 mm | 0 m/s | 123 W/m² | - |
| 1777983050 | 13.89° C | 96% | 1009.4 hPa | 0 mm | 0 m/s | 149 W/m² | - |
| 1777982746 | 13.33° C | 98% | 1009.6 hPa | 0 mm | 0 m/s | 110 W/m² | - |
| 1777982442 | 13.33° C | 98% | 1009.4 hPa | 0 mm | 0.45 m/s, 269° | 88 W/m² | - |
| 1777982136 | 13.33° C | 99% | 1009.5 hPa | 0 mm | 0 m/s | 92 W/m² | - |
| 1777981834 | 12.78° C | 99% | 1009.4 hPa | 0 mm | 0 m/s | 79 W/m² | - |
| 1777981531 | 12.78° C | 99% | 1009.6 hPa | 0 mm | 0 m/s | 89 W/m² | - |
| 1777981227 | 12.22° C | 98% | 1009.5 hPa | 0 mm | 0 m/s | 72 W/m² | - |
| 1777980924 | 12.22° C | 98% | 1009.6 hPa | 0 mm | 0 m/s | 93 W/m² | - |
| 1777980620 | 12.22° C | 97% | 1009.5 hPa | 0 mm | 0 m/s | 81 W/m² | - |
| 1777980316 | 12.22° C | 97% | 1009.7 hPa | 0 mm | 0 m/s | 61 W/m² | - |
| 1777980015 | 12.22° C | 95% | 1009.6 hPa | 0 mm | 0 m/s | 59 W/m² | - |
| 1777979714 | 12.22° C | 94% | 1009.6 hPa | 1.27 mm | 0 m/s | 49 W/m² | - |
| 1777979410 | 12.22° C | 93% | 1009.6 hPa | 3.05 mm | 0 m/s | 33 W/m² | - |
| 1777979107 | 12.78° C | 90% | 1009.2 hPa | 3.05 mm | 0 m/s | 6 W/m² | - |
| 1777978803 | 13.33° C | 87% | 1009.5 hPa | 1.27 mm | 0 m/s | 9 W/m² | - |
| 1777978500 | 13.89° C | 83% | 1009.7 hPa | 0 mm | 0 m/s | 14 W/m² | - |
| 1777978196 | 15° C | 75% | 1010 hPa | 0 mm | 0.89 m/s, 176° | 6 W/m² | - |
| 1777977894 | 15.56° C | 68% | 1010.2 hPa | 0 mm | 0 m/s | 4 W/m² | - |
| 1777977590 | 15.56° C | 66% | 1009.8 hPa | 0 mm | 0 m/s | 14 W/m² | - |
* Rain latest hour (hover to see other rain measurements)
** Current wind speed in m/s (hover to see current wind gust speed)